Time;durP1;ratioP1;P1;durP2;ratioP2;P2;SDS_P1;SDS_P2;PMS_P1;PMS_P2;Temp;Humidity;BMP_temperature;BMP_pressure;BME280_temperature;BME280_humidity;BME280_pressure;Samples;Min_cycle;Max_cycle;Signal;HPM_P1;HPM_P2
2024/01/22 00:01:45;;;;;;;7.45;5.10;;;20.50;99.90;;;;;;5058923;28;20536;-53
2024/01/22 00:04:12;;;;;;;12.00;5.80;;;20.40;99.90;;;;;;5054781;28;20104;-55
2024/01/22 00:06:39;;;;;;;16.83;5.50;;;20.30;99.90;;;;;;5057795;28;20405;-54
2024/01/22 00:09:06;;;;;;;13.63;5.60;;;20.20;99.90;;;;;;5058923;28;20080;-57
2024/01/22 00:11:33;;;;;;;18.25;6.30;;;20.10;99.90;;;;;;5035824;28;20826;-57
2024/01/22 00:14:01;;;;;;;12.15;5.22;;;20.00;99.90;;;;;;5038860;28;20078;-51
2024/01/22 00:16:27;;;;;;;9.30;4.40;;;19.90;99.90;;;;;;5025804;28;20081;-54
2024/01/22 00:18:54;;;;;;;11.00;5.68;;;19.80;99.90;;;;;;5038039;28;20110;-51
2024/01/22 00:21:20;;;;;;;13.25;5.80;;;19.80;99.90;;;;;;5039845;28;20084;-54
2024/01/22 00:23:46;;;;;;;12.20;6.05;;;19.70;99.90;;;;;;5040258;28;20120;-53
2024/01/22 00:26:14;;;;;;;9.10;5.85;;;19.60;99.90;;;;;;5042179;28;20092;-54
2024/01/22 00:28:41;;;;;;;10.93;6.43;;;19.60;99.90;;;;;;5043521;28;20213;-57
2024/01/22 00:31:09;;;;;;;8.02;5.40;;;19.50;99.90;;;;;;5043460;28;20566;-48
2024/01/22 00:33:36;;;;;;;12.10;6.50;;;19.30;99.90;;;;;;5044353;28;20120;-54
2024/01/22 00:36:03;;;;;;;11.95;7.13;;;19.30;99.90;;;;;;5046582;28;20090;-50
2024/01/22 00:38:30;;;;;;;8.93;5.80;;;19.20;99.90;;;;;;5041657;28;20593;-55
2024/01/22 00:40:56;;;;;;;13.40;7.28;;;19.00;99.90;;;;;;5046978;28;20109;-61
2024/01/22 00:43:23;;;;;;;11.65;6.63;;;18.90;99.90;;;;;;5045494;28;20106;-48
2024/01/22 00:45:50;;;;;;;12.38;6.82;;;18.70;99.90;;;;;;5042796;28;20088;-57
2024/01/22 00:48:17;;;;;;;9.32;5.22;;;18.70;99.90;;;;;;5043175;28;20092;-50
2024/01/22 00:50:43;;;;;;;9.77;4.47;;;18.50;99.90;;;;;;5043725;28;20078;-52
2024/01/22 00:53:10;;;;;;;10.70;4.85;;;18.50;99.90;;;;;;5041822;28;20176;-55
2024/01/22 00:55:37;;;;;;;8.85;4.85;;;18.40;99.90;;;;;;5041496;28;20074;-52
2024/01/22 00:58:03;;;;;;;13.20;6.00;;;18.20;99.90;;;;;;5041413;28;20078;-51
2024/01/22 01:00:30;;;;;;;8.48;5.82;;;18.20;99.90;;;;;;5044571;28;20212;-56
2024/01/22 01:02:56;;;;;;;9.80;6.55;;;18.00;99.90;;;;;;5043539;28;20074;-54
2024/01/22 01:05:23;;;;;;;12.43;6.43;;;18.00;99.90;;;;;;5041399;28;20073;-56
2024/01/22 01:07:49;;;;;;;13.25;5.90;;;17.90;99.90;;;;;;5039614;28;20089;-53
2024/01/22 01:10:16;;;;;;;13.45;5.90;;;17.90;99.90;;;;;;5040966;28;20271;-52
2024/01/22 01:12:42;;;;;;;9.50;5.50;;;17.80;99.90;;;;;;5043020;28;20585;-60
2024/01/22 01:15:09;;;;;;;11.93;7.40;;;17.70;99.90;;;;;;5043837;28;20100;-51
2024/01/22 01:17:37;;;;;;;13.80;10.57;;;17.60;99.90;;;;;;5042097;28;20173;-55
2024/01/22 01:20:04;;;;;;;20.90;17.17;;;17.60;99.90;;;;;;5042944;28;20120;-51
2024/01/22 01:22:34;;;;;;;19.33;16.40;;;17.50;99.90;;;;;;5062853;28;20078;-52
2024/01/22 01:25:00;;;;;;;17.63;13.13;;;17.40;99.90;;;;;;5043969;28;20073;-54
2024/01/22 01:27:27;;;;;;;15.88;11.50;;;17.40;99.90;;;;;;5047377;28;20085;-50
2024/01/22 01:29:53;;;;;;;17.17;10.40;;;17.40;99.90;;;;;;5045838;28;20082;-51
2024/01/22 01:32:20;;;;;;;18.65;9.88;;;17.40;99.90;;;;;;5044065;28;20124;-50
2024/01/22 01:34:46;;;;;;;15.82;9.68;;;17.30;99.90;;;;;;5040569;28;20552;-52
2024/01/22 01:37:13;;;;;;;15.13;9.15;;;17.30;99.90;;;;;;5040144;28;20540;-53
2024/01/22 01:39:39;;;;;;;16.40;9.77;;;17.20;99.90;;;;;;5042279;28;20143;-47
2024/01/22 01:42:06;;;;;;;15.80;8.90;;;17.20;99.90;;;;;;5040642;28;20070;-54
2024/01/22 01:44:38;;;;;;;13.75;9.82;;;17.20;99.90;;;;;;5043727;28;20164;-50
2024/01/22 01:47:05;;;;;;;19.65;12.05;;;17.10;99.90;;;;;;5041532;28;20104;-58
2024/01/22 01:49:33;;;;;;;21.05;13.00;;;16.90;99.90;;;;;;5043949;28;20078;-51
2024/01/22 01:52:00;;;;;;;17.60;13.13;;;16.90;99.90;;;;;;5042681;28;20078;-53
2024/01/22 01:54:28;;;;;;;23.08;12.95;;;16.80;99.90;;;;;;5039332;28;20081;-51
2024/01/22 01:56:55;;;;;;;17.08;12.20;;;16.80;99.90;;;;;;5044683;28;20092;-53
2024/01/22 01:59:22;;;;;;;17.38;12.32;;;16.80;99.90;;;;;;5041015;28;20159;-46
2024/01/22 02:01:49;;;;;;;22.83;13.20;;;16.80;99.90;;;;;;5041409;28;20073;-48
2024/01/22 02:04:15;;;;;;;18.80;13.25;;;16.70;99.90;;;;;;5041129;28;20081;-49
2024/01/22 02:06:42;;;;;;;23.60;13.70;;;16.60;99.90;;;;;;5061980;28;20164;-58
2024/01/22 02:09:08;;;;;;;20.73;12.90;;;16.60;99.90;;;;;;5039905;28;20119;-47
2024/01/22 02:11:35;;;;;;;19.60;13.90;;;16.50;99.90;;;;;;5061624;28;20117;-48
2024/01/22 02:14:01;;;;;;;24.02;15.27;;;16.50;99.90;;;;;;5041982;28;20109;-52
2024/01/22 02:16:28;;;;;;;24.15;14.77;;;16.40;99.90;;;;;;5041715;28;20157;-60
2024/01/22 02:18:54;;;;;;;24.00;15.50;;;16.40;99.90;;;;;;5040444;28;20085;-59
2024/01/22 02:21:22;;;;;;;27.42;16.48;;;16.40;99.90;;;;;;5040647;28;20132;-55
2024/01/22 02:23:48;;;;;;;22.95;14.60;;;16.40;99.90;;;;;;5043105;28;20086;-51
2024/01/22 02:26:15;;;;;;;21.02;14.32;;;16.30;99.90;;;;;;5042949;28;20095;-47
2024/01/22 02:28:41;;;;;;;19.98;12.77;;;16.30;99.90;;;;;;5043419;28;20164;-48
2024/01/22 02:31:10;;;;;;;21.13;12.95;;;16.30;99.90;;;;;;5040841;28;20081;-51
2024/01/22 02:33:36;;;;;;;16.55;13.13;;;16.30;99.90;;;;;;5042445;28;20070;-54
2024/01/22 02:36:04;;;;;;;21.42;13.50;;;16.20;99.90;;;;;;5039128;28;20070;-59
2024/01/22 02:38:30;;;;;;;22.77;14.00;;;16.20;99.90;;;;;;5041701;28;20081;-52
2024/01/22 02:40:57;;;;;;;20.48;14.30;;;16.10;99.90;;;;;;5043655;28;20101;-48
2024/01/22 02:43:24;;;;;;;26.08;14.82;;;16.10;99.90;;;;;;5042473;28;20074;-51
2024/01/22 02:45:50;;;;;;;31.95;17.23;;;16.00;99.90;;;;;;5039200;28;20131;-51
2024/01/22 02:48:17;;;;;;;36.40;15.88;;;16.00;99.90;;;;;;5039699;28;20638;-59
2024/01/22 02:50:43;;;;;;;25.58;15.85;;;15.90;99.90;;;;;;5036649;28;20074;-55
2024/01/22 02:53:10;;;;;;;31.35;16.08;;;15.90;99.90;;;;;;5039484;28;20081;-49
2024/01/22 02:55:36;;;;;;;29.20;15.70;;;15.90;99.90;;;;;;5039679;28;20664;-49
2024/01/22 02:58:03;;;;;;;22.75;15.90;;;15.90;99.90;;;;;;5038210;28;20109;-55
2024/01/22 03:00:29;;;;;;;24.10;15.32;;;15.90;99.90;;;;;;5040289;28;20617;-59
2024/01/22 03:02:56;;;;;;;27.05;18.33;;;15.90;99.90;;;;;;5039120;28;20160;-52
2024/01/22 03:05:23;;;;;;;35.83;17.92;;;16.00;99.90;;;;;;5039410;28;20100;-43
2024/01/22 03:07:49;;;;;;;29.25;18.80;;;15.90;99.90;;;;;;5039380;28;20088;-43
2024/01/22 03:10:15;;;;;;;28.52;19.25;;;15.80;99.90;;;;;;5048307;28;20113;-47
2024/01/22 03:12:42;;;;;;;31.95;18.00;;;15.80;99.90;;;;;;5058294;28;20084;-55
2024/01/22 03:15:09;;;;;;;34.67;19.60;;;15.80;99.90;;;;;;5059270;28;20081;-48
2024/01/22 03:17:35;;;;;;;32.85;21.58;;;15.80;99.90;;;;;;5051301;28;20590;-49
2024/01/22 03:20:02;;;;;;;33.00;22.25;;;15.70;99.90;;;;;;5057417;28;20182;-43
2024/01/22 03:22:29;;;;;;;41.03;33.38;;;15.70;99.90;;;;;;5066636;28;20081;-45
2024/01/22 03:24:56;;;;;;;34.83;29.77;;;15.60;99.90;;;;;;5046666;28;20081;-55
2024/01/22 03:27:23;;;;;;;41.05;34.90;;;15.70;99.90;;;;;;5056451;28;20179;-56
2024/01/22 03:29:50;;;;;;;42.03;33.05;;;15.70;99.90;;;;;;5053247;28;20086;-43
2024/01/22 03:32:16;;;;;;;44.03;34.65;;;15.70;99.90;;;;;;5047167;28;20081;-51
2024/01/22 03:34:43;;;;;;;42.28;34.92;;;15.70;99.90;;;;;;5047916;28;20069;-43
2024/01/22 03:37:10;;;;;;;42.60;36.90;;;15.60;99.90;;;;;;5066603;28;20081;-47
2024/01/22 03:39:36;;;;;;;48.70;36.75;;;15.60;99.90;;;;;;5066999;28;20177;-49
2024/01/22 03:42:04;;;;;;;37.90;23.90;;;15.70;99.90;;;;;;5061978;28;20073;-48
2024/01/22 03:44:30;;;;;;;46.78;26.90;;;15.70;99.90;;;;;;5049269;28;20081;-45
2024/01/22 03:46:57;;;;;;;40.35;24.45;;;15.70;99.90;;;;;;5065507;28;20584;-44
2024/01/22 03:49:24;;;;;;;35.97;23.98;;;15.80;99.90;;;;;;5058845;28;20156;-47
2024/01/22 03:51:50;;;;;;;35.58;23.80;;;15.80;99.90;;;;;;5040705;28;20088;-47
2024/01/22 03:54:17;;;;;;;35.45;23.20;;;15.70;99.90;;;;;;5049870;28;20078;-47
2024/01/22 03:56:44;;;;;;;30.90;22.42;;;15.70;99.90;;;;;;5058191;28;20074;-46
2024/01/22 03:59:11;;;;;;;35.80;22.02;;;15.70;99.90;;;;;;5064912;28;20104;-46
2024/01/22 04:01:38;;;;;;;38.08;23.33;;;15.70;99.90;;;;;;5045059;28;20069;-45
2024/01/22 04:04:05;;;;;;;35.75;23.58;;;15.70;99.90;;;;;;5071483;28;20760;-46
2024/01/22 04:06:32;;;;;;;33.75;23.83;;;15.70;99.90;;;;;;5066902;28;20628;-45
2024/01/22 04:08:58;;;;;;;34.45;24.90;;;15.70;99.90;;;;;;5066646;28;20140;-53
2024/01/22 04:11:25;;;;;;;40.88;26.25;;;15.70;99.90;;;;;;5048410;28;20111;-42
2024/01/22 04:13:51;;;;;;;33.72;24.45;;;15.70;99.90;;;;;;5065453;28;20077;-47
2024/01/22 04:16:18;;;;;;;37.22;26.25;;;15.70;99.90;;;;;;5046915;28;20096;-48
2024/01/22 04:18:44;;;;;;;35.75;24.50;;;15.60;99.90;;;;;;5064820;28;20577;-47
2024/01/22 04:21:11;;;;;;;31.33;26.23;;;15.60;99.90;;;;;;5044810;28;20212;-47
2024/01/22 04:23:38;;;;;;;37.58;25.25;;;15.60;99.90;;;;;;5069086;28;20474;-43
2024/01/22 04:26:05;;;;;;;39.15;25.73;;;15.60;99.90;;;;;;5063539;28;20480;-44
2024/01/22 04:28:32;;;;;;;42.08;25.45;;;15.50;99.90;;;;;;5067444;28;20085;-44
2024/01/22 04:30:58;;;;;;;36.13;25.88;;;15.50;99.90;;;;;;5050936;28;20077;-45
2024/01/22 04:33:25;;;;;;;41.00;29.00;;;15.40;99.90;;;;;;5061777;28;20118;-48
2024/01/22 04:35:52;;;;;;;49.97;32.60;;;15.40;99.90;;;;;;5064556;28;20211;-47
2024/01/22 04:38:19;;;;;;;40.90;30.10;;;15.40;99.90;;;;;;5032098;28;20083;-46
2024/01/22 04:40:46;;;;;;;38.30;27.08;;;15.30;99.90;;;;;;5048566;28;20554;-46
2024/01/22 04:43:13;;;;;;;38.20;28.33;;;15.30;99.90;;;;;;5070627;28;20155;-53
2024/01/22 04:45:40;;;;;;;34.55;29.25;;;15.30;99.90;;;;;;5063443;28;20073;-50
2024/01/22 04:48:07;;;;;;;31.80;21.33;;;15.30;99.90;;;;;;5046034;28;20081;-47
2024/01/22 04:50:34;;;;;;;36.88;26.77;;;15.20;99.90;;;;;;5063115;28;20114;-47
2024/01/22 04:53:02;;;;;;;40.80;34.25;;;15.20;99.90;;;;;;5049109;28;20158;-48
2024/01/22 04:55:29;;;;;;;30.73;21.17;;;15.20;99.90;;;;;;5045615;28;20073;-56
2024/01/22 04:57:55;;;;;;;28.52;20.13;;;15.20;99.90;;;;;;5061656;28;20084;-46
2024/01/22 05:00:22;;;;;;;32.40;21.15;;;15.20;99.90;;;;;;5067273;28;20101;-52
2024/01/22 05:02:48;;;;;;;31.85;20.98;;;15.10;99.90;;;;;;5050461;28;20507;-47
2024/01/22 05:05:15;;;;;;;35.33;22.98;;;15.10;99.90;;;;;;5068582;28;20098;-43
2024/01/22 05:07:42;;;;;;;31.75;23.15;;;15.10;99.90;;;;;;5065491;28;20077;-48
2024/01/22 05:10:09;;;;;;;35.55;22.25;;;15.00;99.90;;;;;;5063224;28;20127;-42
2024/01/22 05:12:37;;;;;;;31.13;22.80;;;15.00;99.90;;;;;;5069997;28;20081;-44
2024/01/22 05:15:04;;;;;;;36.10;24.05;;;15.00;99.90;;;;;;5062094;28;20160;-46
2024/01/22 05:17:32;;;;;;;34.70;25.23;;;15.00;99.90;;;;;;5060181;28;21338;-49
2024/01/22 05:19:59;;;;;;;36.78;25.25;;;15.00;99.90;;;;;;5041744;28;20124;-50
2024/01/22 05:22:26;;;;;;;35.88;25.27;;;15.00;99.90;;;;;;5058355;28;20085;-46
2024/01/22 05:24:53;;;;;;;33.17;23.25;;;15.00;99.90;;;;;;5060560;28;20156;-48
2024/01/22 05:27:19;;;;;;;31.13;22.70;;;15.00;99.90;;;;;;5056532;28;20109;-46
2024/01/22 05:29:46;;;;;;;27.67;21.80;;;15.00;99.90;;;;;;5040449;28;20297;-46
2024/01/22 05:32:13;;;;;;;29.27;22.10;;;15.00;99.90;;;;;;5061142;28;20077;-44
2024/01/22 05:34:39;;;;;;;29.35;22.73;;;15.00;99.90;;;;;;5059536;28;20092;-44
2024/01/22 05:37:06;;;;;;;26.67;22.77;;;15.00;99.90;;;;;;5043147;28;20089;-43
2024/01/22 05:39:32;;;;;;;33.80;27.38;;;15.00;99.90;;;;;;5063012;28;20192;-58
2024/01/22 05:41:59;;;;;;;37.85;28.95;;;15.00;99.90;;;;;;5065140;28;20453;-46
2024/01/22 05:44:26;;;;;;;33.35;26.17;;;15.00;99.90;;;;;;5057661;28;20650;-46
2024/01/22 05:46:53;;;;;;;31.40;24.95;;;15.10;99.90;;;;;;5062130;28;20163;-47
2024/01/22 05:49:19;;;;;;;28.33;23.00;;;15.10;99.90;;;;;;5061949;28;20069;-43
2024/01/22 05:51:46;;;;;;;30.27;23.17;;;15.10;99.90;;;;;;5061993;28;20085;-44
2024/01/22 05:54:14;;;;;;;25.88;21.63;;;15.10;99.90;;;;;;5059254;28;20157;-42
2024/01/22 05:56:41;;;;;;;27.92;22.83;;;15.00;99.90;;;;;;5045734;28;20083;-48
2024/01/22 05:59:08;;;;;;;41.33;33.25;;;14.90;99.90;;;;;;5045349;28;20073;-43
2024/01/22 06:01:34;;;;;;;48.33;34.60;;;14.90;99.90;;;;;;5046476;28;20077;-53
2024/01/22 06:04:04;;;;;;;37.08;28.83;;;14.90;99.90;;;;;;5045613;28;20080;-49
2024/01/22 06:06:30;;;;;;;30.80;23.05;;;15.20;99.90;;;;;;5059605;28;20160;-46
2024/01/22 06:08:56;;;;;;;30.20;19.48;;;15.90;99.90;;;;;;5058958;28;20073;-47
2024/01/22 06:11:23;;;;;;;27.55;18.60;;;16.30;99.90;;;;;;5061603;28;20120;-47
2024/01/22 06:13:50;;;;;;;21.73;17.17;;;16.30;99.90;;;;;;5057614;28;20119;-47
2024/01/22 06:16:17;;;;;;;21.85;15.38;;;16.60;99.90;;;;;;5044236;28;20440;-48
2024/01/22 06:18:48;;;;;;;21.55;15.30;;;16.40;99.90;;;;;;5041971;28;20073;-50
2024/01/22 06:21:14;;;;;;;24.98;15.45;;;16.70;99.90;;;;;;5042439;28;20092;-45
2024/01/22 06:23:44;;;;;;;24.17;15.20;;;16.40;99.90;;;;;;5064234;28;20078;-45
2024/01/22 06:26:11;;;;;;;22.48;14.38;;;16.40;99.90;;;;;;5041062;28;20523;-51
2024/01/22 06:28:38;;;;;;;18.88;12.35;;;16.60;99.90;;;;;;5042947;28;20436;-45
2024/01/22 06:31:05;;;;;;;26.92;13.02;;;16.50;99.90;;;;;;5048226;28;20446;-46
2024/01/22 06:33:32;;;;;;;20.08;13.30;;;16.60;99.90;;;;;;5045253;28;20484;-44
2024/01/22 06:35:58;;;;;;;18.98;14.02;;;16.50;99.90;;;;;;5054459;28;20169;-45
2024/01/22 06:38:25;;;;;;;22.02;14.48;;;16.50;99.90;;;;;;5039694;28;20070;-45
2024/01/22 06:40:51;;;;;;;25.40;16.38;;;16.50;99.90;;;;;;5039693;28;20100;-49
2024/01/22 06:43:18;;;;;;;25.38;16.65;;;16.50;99.90;;;;;;5044923;28;20492;-52
2024/01/22 06:45:44;;;;;;;32.53;18.80;;;16.50;99.90;;;;;;5064134;28;20070;-51
2024/01/22 06:48:11;;;;;;;25.98;17.38;;;16.40;99.90;;;;;;5055911;28;20158;-45
2024/01/22 06:50:39;;;;;;;26.95;18.92;;;16.60;99.90;;;;;;5040502;28;20549;-46
2024/01/22 06:53:05;;;;;;;24.58;19.40;;;16.50;99.90;;;;;;5038989;28;20073;-44
2024/01/22 06:55:32;;;;;;;25.02;18.20;;;16.40;99.90;;;;;;5045267;28;20072;-54
2024/01/22 06:57:58;;;;;;;35.45;25.63;;;16.40;99.90;;;;;;5044088;28;20081;-50
2024/01/22 07:00:26;;;;;;;51.85;41.85;;;16.40;99.90;;;;;;5047287;28;20105;-46
2024/01/22 07:02:53;;;;;;;57.70;47.53;;;16.30;99.90;;;;;;5043753;28;20080;-48
2024/01/22 07:05:19;;;;;;;59.58;51.45;;;16.10;99.90;;;;;;5065414;28;20073;-48
2024/01/22 07:07:46;;;;;;;45.40;39.65;;;16.20;99.90;;;;;;5053837;28;20074;-56
2024/01/22 07:10:13;;;;;;;40.03;33.75;;;16.10;99.90;;;;;;5042976;28;20127;-49
2024/01/22 07:12:42;;;;;;;41.00;32.40;;;16.10;99.90;;;;;;5063450;28;20157;-44
2024/01/22 07:15:12;;;;;;;30.52;27.23;;;16.10;99.90;;;;;;5036491;28;20081;-48
2024/01/22 07:17:44;;;;;;;28.10;22.48;;;16.10;99.90;;;;;;5052737;28;20086;-46
2024/01/22 07:20:14;;;;;;;24.83;18.20;;;16.00;99.90;;;;;;5041866;28;20101;-50
2024/01/22 07:22:42;;;;;;;17.00;14.65;;;15.90;99.90;;;;;;5055950;28;20539;-47
2024/01/22 07:25:10;;;;;;;22.00;14.18;;;15.80;99.90;;;;;;5050096;28;20073;-52
2024/01/22 07:27:38;;;;;;;19.48;13.48;;;15.80;99.90;;;;;;5055533;28;20164;-45
2024/01/22 07:30:08;;;;;;;17.55;13.43;;;16.00;99.90;;;;;;5057835;28;20140;-55
2024/01/22 07:32:38;;;;;;;20.88;12.57;;;16.00;99.90;;;;;;5033887;28;20883;-49
2024/01/22 07:35:09;;;;;;;19.75;12.45;;;16.00;99.90;;;;;;5058769;28;20077;-44
2024/01/22 07:37:37;;;;;;;21.02;13.68;;;16.00;99.90;;;;;;5049212;28;20168;-44
2024/01/22 07:40:05;;;;;;;17.15;13.70;;;16.00;99.90;;;;;;5059702;28;20239;-46
2024/01/22 07:42:33;;;;;;;18.77;14.02;;;15.90;99.90;;;;;;5044120;28;20077;-48
2024/01/22 07:45:01;;;;;;;22.15;15.27;;;15.90;99.90;;;;;;5043740;28;20150;-44
2024/01/22 07:47:28;;;;;;;21.73;16.60;;;15.80;99.90;;;;;;5051593;28;20107;-46
2024/01/22 07:49:55;;;;;;;23.67;15.95;;;15.70;99.90;;;;;;5048335;28;20098;-45
2024/01/22 07:52:22;;;;;;;23.90;17.70;;;15.60;99.90;;;;;;5057684;28;20085;-55
2024/01/22 07:54:49;;;;;;;22.13;17.15;;;15.50;99.90;;;;;;5043280;28;20535;-49
2024/01/22 07:57:16;;;;;;;23.60;16.33;;;15.40;99.90;;;;;;5054450;28;20156;-44
2024/01/22 07:59:43;;;;;;;21.33;14.45;;;15.30;99.90;;;;;;5058467;28;20563;-48
2024/01/22 08:02:09;;;;;;;32.42;27.90;;;15.20;99.90;;;;;;5040176;28;20103;-49
2024/01/22 08:04:37;;;;;;;22.80;15.88;;;15.30;99.90;;;;;;5042509;28;20128;-44
2024/01/22 08:07:06;;;;;;;25.38;17.67;;;15.40;99.90;;;;;;5066072;28;20107;-51
2024/01/22 08:09:36;;;;;;;22.83;15.95;;;15.30;99.90;;;;;;5047275;28;20077;-51
2024/01/22 08:12:04;;;;;;;23.02;15.98;;;15.20;99.90;;;;;;5057997;28;20450;-47
2024/01/22 08:14:31;;;;;;;25.27;18.10;;;15.10;99.90;;;;;;5038149;28;20081;-49
2024/01/22 08:16:58;;;;;;;32.53;25.90;;;15.00;99.90;;;;;;5043870;28;20117;-46
2024/01/22 08:19:24;;;;;;;35.85;28.05;;;15.10;99.90;;;;;;5055015;28;20105;-43
2024/01/22 08:21:51;;;;;;;32.92;28.27;;;15.10;99.90;;;;;;5043934;28;20549;-46
2024/01/22 08:24:17;;;;;;;21.38;15.05;;;15.20;99.90;;;;;;5039556;28;20478;-46
2024/01/22 08:26:44;;;;;;;22.17;15.20;;;15.10;99.90;;;;;;5039157;28;20103;-44
2024/01/22 08:29:11;;;;;;;22.90;15.60;;;15.20;99.90;;;;;;5039450;28;20104;-52
2024/01/22 08:31:38;;;;;;;22.73;15.95;;;15.20;99.90;;;;;;5046396;28;20077;-43
2024/01/22 08:34:05;;;;;;;22.63;15.73;;;15.20;99.90;;;;;;5042947;28;20076;-48
2024/01/22 08:36:31;;;;;;;18.17;15.20;;;15.10;99.90;;;;;;5035344;28;20077;-43
2024/01/22 08:38:58;;;;;;;22.52;17.15;;;15.00;99.90;;;;;;5040392;28;20085;-44
2024/01/22 08:41:27;;;;;;;24.00;17.55;;;15.00;99.90;;;;;;5059627;28;20127;-53
2024/01/22 08:44:01;;;;;;;22.88;15.88;;;15.00;99.90;;;;;;5041327;28;20080;-44
2024/01/22 08:46:28;;;;;;;19.50;15.93;;;14.90;99.90;;;;;;5047042;28;20527;-51
2024/01/22 08:48:54;;;;;;;25.25;16.30;;;14.80;99.90;;;;;;5048734;28;20073;-44
2024/01/22 08:51:21;;;;;;;21.48;17.23;;;14.80;99.90;;;;;;5041249;28;20073;-43
2024/01/22 08:53:47;;;;;;;25.13;17.40;;;14.80;99.90;;;;;;5046826;28;20074;-46
2024/01/22 08:56:14;;;;;;;20.10;16.13;;;14.70;99.90;;;;;;5043306;28;20520;-44
2024/01/22 08:58:41;;;;;;;23.95;16.83;;;14.70;99.90;;;;;;5063996;28;20079;-48
2024/01/22 09:01:07;;;;;;;23.95;15.55;;;14.70;99.90;;;;;;5046394;28;20127;-44
2024/01/22 09:03:34;;;;;;;22.48;17.02;;;14.80;99.90;;;;;;5057304;28;20065;-44
2024/01/22 09:06:01;;;;;;;24.45;16.50;;;14.80;99.90;;;;;;5053982;28;20073;-43
2024/01/22 09:08:28;;;;;;;19.77;15.98;;;14.80;99.90;;;;;;5043999;28;20105;-44
2024/01/22 09:10:54;;;;;;;21.63;16.52;;;14.80;99.90;;;;;;5038396;28;20113;-43
2024/01/22 09:13:23;;;;;;;37.70;30.58;;;14.70;99.90;;;;;;5048197;28;20108;-47
2024/01/22 09:15:50;;;;;;;26.90;22.17;;;14.70;99.90;;;;;;5064905;28;20081;-45
2024/01/22 09:18:16;;;;;;;25.70;17.50;;;14.70;99.90;;;;;;5042711;28;20084;-45
2024/01/22 09:20:43;;;;;;;24.02;17.88;;;14.70;99.90;;;;;;5059448;28;20120;-44
2024/01/22 09:23:09;;;;;;;20.23;15.05;;;14.70;99.90;;;;;;5044836;28;20508;-45
2024/01/22 09:25:36;;;;;;;21.58;16.58;;;14.60;99.90;;;;;;5042631;28;20073;-46
2024/01/22 09:28:04;;;;;;;25.30;19.52;;;14.60;99.90;;;;;;5043291;28;20190;-54
2024/01/22 09:30:31;;;;;;;19.40;15.68;;;14.50;99.90;;;;;;5060012;28;20077;-45
2024/01/22 09:32:58;;;;;;;19.33;15.27;;;14.50;99.90;;;;;;5050731;28;20077;-45
2024/01/22 09:35:25;;;;;;;23.25;16.67;;;14.60;99.90;;;;;;5041780;28;20073;-54
2024/01/22 09:37:53;;;;;;;20.98;14.48;;;14.60;99.90;;;;;;5049291;28;20086;-52
2024/01/22 09:40:21;;;;;;;23.58;14.75;;;14.50;99.90;;;;;;5048224;28;20101;-45
2024/01/22 09:42:49;;;;;;;22.17;15.00;;;14.50;99.90;;;;;;5043528;28;20085;-52
2024/01/22 09:45:15;;;;;;;21.95;15.65;;;14.50;99.90;;;;;;5056566;28;20088;-44
2024/01/22 09:47:44;;;;;;;19.05;14.82;;;14.50;99.90;;;;;;5053698;28;20555;-45
2024/01/22 09:50:11;;;;;;;23.60;17.00;;;14.50;99.90;;;;;;5042729;28;20088;-44
2024/01/22 09:52:42;;;;;;;19.95;16.27;;;14.50;99.90;;;;;;5047569;28;20074;-48
2024/01/22 09:55:10;;;;;;;23.02;17.80;;;14.50;99.90;;;;;;5047706;28;20112;-44
2024/01/22 09:57:38;;;;;;;25.55;19.05;;;14.50;99.90;;;;;;5061016;28;20156;-55
2024/01/22 10:00:07;;;;;;;28.38;19.80;;;14.50;99.90;;;;;;5043812;28;20105;-54
2024/01/22 10:02:34;;;;;;;28.40;19.40;;;14.50;99.90;;;;;;5054037;28;20081;-50
2024/01/22 10:05:02;;;;;;;26.05;17.73;;;14.40;99.90;;;;;;5046013;28;21881;-48
2024/01/22 10:07:28;;;;;;;28.60;19.98;;;14.40;99.90;;;;;;5043282;28;20074;-48
2024/01/22 10:09:55;;;;;;;24.40;18.88;;;14.50;99.90;;;;;;5032596;28;20140;-48
2024/01/22 10:12:22;;;;;;;19.88;16.20;;;14.40;99.90;;;;;;5060543;28;20080;-55
2024/01/22 10:14:48;;;;;;;24.05;18.10;;;14.40;99.90;;;;;;5042300;28;20598;-45
2024/01/22 10:17:21;;;;;;;19.75;15.10;;;14.40;99.90;;;;;;5053844;28;20131;-48
2024/01/22 10:19:49;;;;;;;21.80;15.35;;;14.40;99.90;;;;;;5043065;28;20101;-51
2024/01/22 10:22:19;;;;;;;20.08;15.95;;;14.40;99.90;;;;;;5046409;28;20127;-53
2024/01/22 10:25:02;;;;;;;22.33;14.85;;;14.40;99.90;;;;;;5043124;28;20548;-47
2024/01/22 10:27:29;;;;;;;17.98;13.43;;;14.40;99.90;;;;;;5041720;28;20073;-46
2024/01/22 10:30:12;;;;;;;21.02;14.35;;;14.40;99.90;;;;;;5053472;28;20474;-47
2024/01/22 10:32:39;;;;;;;20.10;15.02;;;14.50;99.90;;;;;;5043000;28;20091;-46
2024/01/22 10:35:25;;;;;;;23.70;16.52;;;14.50;99.90;;;;;;5061723;28;20078;-47
2024/01/22 10:38:13;;;;;;;24.75;14.73;;;14.50;99.90;;;;;;5049166;28;20180;-47
2024/01/22 10:40:41;;;;;;;19.73;13.63;;;14.50;99.90;;;;;;5048707;28;20150;-45
2024/01/22 10:43:26;;;;;;;16.27;12.93;;;14.50;99.90;;;;;;5048055;28;20076;-46
2024/01/22 10:45:57;;;;;;;18.33;14.25;;;14.40;99.90;;;;;;5041360;28;20088;-44
2024/01/22 10:48:25;;;;;;;19.98;13.27;;;14.30;99.90;;;;;;5043832;28;20551;-46
2024/01/22 10:50:52;;;;;;;19.60;13.00;;;14.30;99.90;;;;;;5045166;28;20100;-44
2024/01/22 10:53:19;;;;;;;18.42;12.75;;;14.30;99.90;;;;;;5053933;28;20074;-45
2024/01/22 10:56:20;;;;;;;20.85;13.50;;;14.30;99.90;;;;;;5045044;28;20088;-46
2024/01/22 10:58:49;;;;;;;21.55;13.23;;;14.30;99.90;;;;;;5030779;28;20080;-49
2024/01/22 11:01:18;;;;;;;20.50;12.65;;;14.30;99.90;;;;;;5065592;28;20545;-47
2024/01/22 11:03:49;;;;;;;18.00;13.43;;;14.20;99.90;;;;;;5044155;28;20186;-50
2024/01/22 11:06:24;;;;;;;17.00;12.30;;;14.10;99.90;;;;;;5063991;28;20126;-46
2024/01/22 11:08:53;;;;;;;18.92;12.82;;;14.20;99.90;;;;;;5050193;28;20596;-47
2024/01/22 11:11:28;;;;;;;19.52;12.73;;;14.10;99.90;;;;;;5042883;28;20112;-44
2024/01/22 11:13:58;;;;;;;21.02;13.00;;;14.10;99.90;;;;;;5046036;28;20100;-47
2024/01/22 11:16:25;;;;;;;20.70;13.38;;;14.10;99.90;;;;;;5065103;28;20076;-44
2024/01/22 11:19:04;;;;;;;17.88;12.32;;;14.00;99.90;;;;;;5045574;28;20134;-45
2024/01/22 11:21:39;;;;;;;16.38;11.60;;;14.00;99.90;;;;;;5050444;28;20077;-44
2024/01/22 11:24:22;;;;;;;16.95;11.73;;;14.10;99.90;;;;;;5032417;28;20131;-44
2024/01/22 11:26:51;;;;;;;16.02;11.80;;;14.00;99.90;;;;;;5039500;28;20174;-46
2024/01/22 11:29:28;;;;;;;15.80;11.18;;;14.00;99.90;;;;;;5041918;28;20451;-43
2024/01/22 11:31:56;;;;;;;14.15;11.23;;;14.00;99.90;;;;;;5039464;28;20438;-45
2024/01/22 11:34:40;;;;;;;15.57;11.23;;;14.00;99.90;;;;;;5048848;28;20081;-46
2024/01/22 11:37:08;;;;;;;12.77;10.50;;;14.00;99.90;;;;;;5062191;28;20134;-51
2024/01/22 11:39:43;;;;;;;17.60;10.98;;;14.00;99.90;;;;;;5045467;28;20104;-46
2024/01/22 11:42:20;;;;;;;14.73;10.57;;;14.00;99.90;;;;;;5059404;28;20129;-45
2024/01/22 11:44:48;;;;;;;16.75;11.05;;;14.00;99.90;;;;;;5033211;28;20215;-51
2024/01/22 11:47:16;;;;;;;13.25;10.40;;;14.00;99.90;;;;;;5044152;28;20546;-43
2024/01/22 11:49:43;;;;;;;15.05;10.15;;;14.00;99.90;;;;;;5037027;28;20118;-46
2024/01/22 11:52:11;;;;;;;14.95;10.80;;;14.10;99.90;;;;;;5040522;28;20077;-46
2024/01/22 11:54:39;;;;;;;19.27;12.52;;;14.00;99.90;;;;;;5040193;28;20088;-56
2024/01/22 11:57:05;;;;;;;16.25;11.50;;;14.00;99.90;;;;;;5057827;28;20074;-45
2024/01/22 11:59:32;;;;;;;19.05;12.65;;;14.00;99.90;;;;;;5043026;28;20474;-46
2024/01/22 12:02:11;;;;;;;18.00;11.93;;;14.00;99.90;;;;;;5043102;28;20157;-45
2024/01/22 12:04:38;;;;;;;16.35;11.85;;;14.00;99.90;;;;;;5058106;28;20085;-44
2024/01/22 12:07:04;;;;;;;17.00;11.52;;;14.00;99.90;;;;;;5041438;28;20103;-45
2024/01/22 12:09:35;;;;;;;14.68;10.35;;;14.00;99.90;;;;;;5054093;28;20074;-48
2024/01/22 12:12:03;;;;;;;16.67;11.02;;;13.90;99.90;;;;;;5042708;28;20113;-54
2024/01/22 12:14:30;;;;;;;15.23;9.98;;;14.00;99.90;;;;;;5040940;28;20477;-44
2024/01/22 12:17:04;;;;;;;12.52;10.05;;;13.90;99.90;;;;;;5042489;28;20077;-47
2024/01/22 12:19:31;;;;;;;12.75;9.32;;;13.90;99.90;;;;;;5037049;28;20105;-45
2024/01/22 12:21:57;;;;;;;12.13;9.30;;;13.90;99.90;;;;;;5039527;28;20073;-49
2024/01/22 12:24:24;;;;;;;18.35;9.90;;;13.90;99.90;;;;;;5036934;28;20078;-46
2024/01/22 12:26:53;;;;;;;12.07;9.07;;;14.00;99.90;;;;;;5043042;28;20082;-45
2024/01/22 12:29:22;;;;;;;13.80;9.50;;;14.00;99.90;;;;;;5044648;28;20073;-58
2024/01/22 12:31:49;;;;;;;11.57;9.18;;;13.90;99.90;;;;;;5041277;28;20092;-45